createdAt,value
2019-02-15T00:02:24.861Z,3.50
2019-02-15T00:04:53.236Z,3.40
2019-02-15T00:07:21.624Z,3.40
2019-02-15T00:09:49.999Z,3.30
2019-02-15T00:12:18.370Z,3.30
2019-02-15T00:14:48.663Z,3.30
2019-02-15T00:17:18.692Z,3.30
2019-02-15T00:19:48.703Z,3.30
2019-02-15T00:22:17.080Z,3.40
2019-02-15T00:24:45.544Z,3.40
2019-02-15T00:27:13.935Z,3.50
2019-02-15T00:29:42.317Z,3.50
2019-02-15T00:32:10.764Z,3.50
2019-02-15T00:34:39.159Z,3.50
2019-02-15T00:37:07.588Z,3.50
2019-02-15T00:39:35.980Z,3.40
2019-02-15T00:42:04.366Z,3.40
2019-02-15T00:44:32.748Z,3.40
2019-02-15T00:47:02.776Z,3.30
2019-02-15T00:49:33.036Z,3.30
2019-02-15T00:52:03.064Z,3.30
2019-02-15T00:54:33.094Z,3.30
2019-02-15T00:57:18.105Z,3.30
2019-02-15T00:59:48.141Z,3.30
2019-02-15T01:02:30.053Z,3.30
2019-02-15T01:05:00.079Z,3.30
2019-02-15T01:07:32.612Z,3.30
2019-02-15T01:10:05.691Z,3.30
2019-02-15T01:12:35.727Z,3.30
2019-02-15T01:15:04.536Z,3.30
2019-02-15T01:17:32.907Z,3.30
2019-02-15T01:20:01.287Z,3.30
2019-02-15T01:22:29.672Z,3.30
2019-02-15T01:24:58.925Z,3.40
2019-02-15T01:27:31.975Z,3.40
2019-02-15T01:30:17.367Z,3.40
2019-02-15T01:32:53.089Z,3.40
2019-02-15T01:35:23.123Z,3.30
2019-02-15T01:37:56.056Z,3.20
2019-02-15T01:40:32.216Z,3.20
2019-02-15T01:45:50.127Z,3.10
2019-02-15T01:48:18.516Z,3.20
2019-02-15T01:50:46.891Z,3.20
2019-02-15T01:53:15.281Z,3.20
2019-02-15T01:55:43.667Z,3.20
2019-02-15T01:58:12.055Z,3.30
2019-02-15T02:00:40.494Z,3.30
2019-02-15T02:03:08.891Z,3.40
2019-02-15T02:05:37.265Z,3.40
2019-02-15T02:08:06.307Z,3.40
2019-02-15T02:10:34.696Z,3.40
2019-02-15T02:13:22.412Z,3.50
2019-02-15T02:15:50.868Z,3.50
2019-02-15T02:18:19.238Z,3.50
2019-02-15T02:20:47.627Z,3.40
2019-02-15T02:23:16.008Z,3.40
2019-02-15T02:25:44.402Z,3.40
2019-02-15T02:28:12.780Z,3.40
2019-02-15T02:30:41.173Z,3.20
2019-02-15T02:33:09.551Z,3.20
2019-02-15T02:35:37.927Z,3.10
2019-02-15T02:38:06.299Z,3.00
2019-02-15T02:40:34.687Z,2.90
2019-02-15T02:43:22.412Z,2.80
2019-02-15T02:45:50.792Z,2.70
2019-02-15T02:48:19.171Z,2.60
2019-02-15T02:50:47.548Z,2.60
2019-02-15T02:53:15.936Z,2.60
2019-02-15T02:55:44.316Z,2.60
2019-02-15T02:58:12.696Z,2.60
2019-02-15T03:00:41.082Z,2.40
2019-02-15T03:03:09.476Z,2.30
2019-02-15T03:05:37.848Z,2.30
2019-02-15T03:08:06.228Z,2.30
2019-02-15T03:10:34.611Z,2.40
2019-02-15T03:13:02.987Z,2.40
2019-02-15T03:15:31.371Z,2.50
2019-02-15T03:17:59.755Z,2.50
2019-02-15T03:20:31.165Z,2.50
2019-02-15T03:22:58.232Z,2.40
2019-02-15T03:25:26.620Z,2.50
2019-02-15T03:27:55.009Z,2.50
2019-02-15T03:30:23.401Z,2.50
2019-02-15T03:32:51.776Z,2.50
2019-02-15T03:35:20.153Z,2.40
2019-02-15T03:37:55.885Z,2.50
2019-02-15T03:40:25.921Z,2.50
2019-02-15T03:42:54.293Z,2.40
2019-02-15T03:45:22.685Z,2.40
2019-02-15T03:47:51.052Z,2.40
2019-02-15T03:50:19.434Z,2.40
2019-02-15T03:52:47.825Z,2.40
2019-02-15T03:55:16.272Z,2.50
2019-02-15T03:57:44.648Z,2.60
2019-02-15T04:00:13.477Z,2.60
2019-02-15T04:02:41.862Z,2.60
2019-02-15T04:05:11.898Z,2.70
2019-02-15T04:07:40.284Z,2.70
2019-02-15T04:10:09.411Z,2.60
2019-02-15T04:12:37.800Z,2.60
2019-02-15T04:15:07.417Z,2.70
2019-02-15T04:17:35.803Z,2.60
2019-02-15T04:20:06.190Z,2.60
2019-02-15T04:22:34.571Z,2.50
2019-02-15T04:25:03.020Z,2.40
2019-02-15T04:27:31.412Z,2.40
2019-02-15T04:29:59.784Z,2.40
2019-02-15T04:32:28.164Z,2.40
2019-02-15T04:34:56.549Z,2.40
2019-02-15T04:37:24.932Z,2.40
2019-02-15T04:39:53.312Z,2.40
2019-02-15T04:42:21.700Z,2.40
2019-02-15T04:44:50.091Z,2.20
2019-02-15T04:47:18.476Z,2.20
2019-02-15T04:49:46.869Z,2.20
2019-02-15T04:52:15.255Z,2.20
2019-02-15T04:54:43.628Z,2.20
2019-02-15T04:57:12.017Z,2.20
2019-02-15T04:59:40.391Z,2.20
2019-02-15T05:02:08.796Z,2.10
2019-02-15T05:04:37.187Z,2.10
2019-02-15T05:07:05.571Z,2.20
2019-02-15T05:09:33.960Z,2.20
2019-02-15T05:12:02.352Z,2.20
2019-02-15T05:14:30.730Z,2.20
2019-02-15T05:16:59.099Z,2.20
2019-02-15T05:19:27.488Z,2.10
2019-02-15T05:21:55.866Z,2.10
2019-02-15T05:24:24.244Z,2.10
2019-02-15T05:26:52.629Z,2.10
2019-02-15T05:29:21.023Z,2.10
2019-02-15T05:31:49.391Z,2.10
2019-02-15T05:34:17.791Z,2.10
2019-02-15T05:36:46.168Z,2.10
2019-02-15T05:39:14.543Z,2.00
2019-02-15T05:41:44.339Z,2.00
2019-02-15T05:44:12.712Z,1.80
2019-02-15T05:46:41.110Z,1.80
2019-02-15T05:49:15.391Z,1.70
2019-02-15T05:51:43.796Z,1.60
2019-02-15T05:54:12.172Z,1.50
2019-02-15T05:56:40.550Z,1.60
2019-02-15T05:59:08.928Z,1.50
2019-02-15T06:01:37.480Z,1.50
2019-02-15T06:04:05.864Z,1.50
2019-02-15T06:06:34.536Z,1.50
2019-02-15T06:09:04.695Z,1.40
2019-02-15T06:11:37.160Z,1.40
2019-02-15T06:14:03.179Z,1.40
2019-02-15T06:16:31.551Z,1.40
2019-02-15T06:18:59.940Z,1.30
2019-02-15T06:21:28.319Z,1.20
2019-02-15T06:23:56.703Z,1.10
2019-02-15T06:26:25.093Z,1.20
2019-02-15T06:28:53.465Z,1.10
2019-02-15T06:31:21.848Z,1.10
2019-02-15T06:33:50.229Z,1.10
2019-02-15T06:36:18.608Z,1.10
2019-02-15T06:38:46.983Z,1.10
2019-02-15T06:41:15.380Z,1.10
2019-02-15T06:43:43.739Z,1.10
2019-02-15T06:46:12.115Z,1.10
2019-02-15T06:48:40.499Z,1.20
2019-02-15T06:51:08.863Z,1.20
2019-02-15T06:53:37.248Z,1.20
2019-02-15T06:56:05.632Z,1.20
2019-02-15T06:58:35.188Z,1.20
2019-02-15T07:01:11.257Z,1.30
2019-02-15T07:03:41.280Z,1.30
2019-02-15T07:06:09.653Z,1.30
2019-02-15T07:08:38.049Z,1.30
2019-02-15T07:11:06.449Z,1.40
2019-02-15T07:13:34.815Z,1.50
2019-02-15T07:16:03.200Z,1.60
2019-02-15T07:18:31.584Z,1.70
2019-02-15T07:20:59.959Z,1.80
2019-02-15T07:23:28.344Z,1.90
2019-02-15T07:25:56.735Z,2.00
2019-02-15T07:28:25.108Z,2.10
2019-02-15T07:30:53.479Z,2.30
2019-02-15T07:33:21.873Z,2.40
2019-02-15T07:35:50.260Z,2.60
2019-02-15T07:38:18.637Z,2.80
2019-02-15T07:40:47.020Z,2.90
2019-02-15T07:43:15.397Z,3.00
2019-02-15T07:45:43.779Z,3.10
2019-02-15T07:48:12.158Z,3.10
2019-02-15T07:50:40.527Z,3.20
2019-02-15T07:53:09.187Z,3.20
2019-02-15T07:55:37.779Z,3.30
2019-02-15T07:58:06.172Z,3.40
2019-02-15T08:00:34.541Z,3.40
2019-02-15T08:03:02.931Z,3.50
2019-02-15T08:05:31.313Z,4.00
2019-02-15T08:07:59.703Z,5.40
2019-02-15T08:10:28.084Z,6.60
2019-02-15T08:12:56.471Z,7.40
2019-02-15T08:15:24.843Z,8.20
2019-02-15T08:17:53.231Z,8.80
2019-02-15T08:20:21.616Z,9.70
2019-02-15T08:22:49.995Z,10.20
2019-02-15T08:25:18.405Z,10.80
2019-02-15T08:27:46.792Z,11.30
2019-02-15T08:30:15.184Z,11.50
2019-02-15T08:32:43.564Z,11.90
2019-02-15T08:35:11.954Z,12.50
2019-02-15T08:37:40.336Z,12.70
2019-02-15T08:40:10.646Z,12.70
2019-02-15T08:42:39.036Z,12.80
2019-02-15T08:45:12.237Z,12.60
2019-02-15T08:47:40.992Z,12.40
2019-02-15T08:50:11.108Z,12.20
2019-02-15T08:52:39.571Z,12.20
2019-02-15T08:55:09.987Z,12.20
2019-02-15T08:57:38.375Z,12.30
2019-02-15T09:00:09.569Z,12.40
2019-02-15T09:02:37.947Z,12.40
2019-02-15T09:05:08.672Z,12.50
2019-02-15T09:07:37.068Z,12.70
2019-02-15T09:10:08.394Z,12.70
2019-02-15T09:12:36.784Z,12.90
2019-02-15T09:15:08.245Z,13.10
2019-02-15T09:17:36.636Z,13.60
2019-02-15T09:20:08.260Z,13.70
2019-02-15T09:22:36.652Z,13.80
2019-02-15T09:25:07.072Z,14.00
2019-02-15T09:27:37.098Z,14.50
2019-02-15T09:30:08.595Z,14.90
2019-02-15T09:32:36.992Z,15.00
2019-02-15T09:35:08.330Z,15.30
2019-02-15T09:37:36.706Z,15.70
2019-02-15T09:40:07.335Z,15.70
2019-02-15T09:42:35.715Z,15.70
2019-02-15T09:45:05.924Z,16.00
2019-02-15T09:47:34.312Z,16.40
2019-02-15T09:50:02.992Z,16.70
2019-02-15T09:52:31.375Z,17.40
2019-02-15T09:54:59.763Z,17.80
2019-02-15T09:57:28.152Z,17.90
2019-02-15T09:59:56.545Z,17.80
2019-02-15T10:02:24.945Z,18.00
2019-02-15T10:04:53.332Z,18.30
2019-02-15T10:07:21.711Z,18.80
2019-02-15T10:09:50.100Z,19.10
2019-02-15T10:12:18.508Z,19.10
2019-02-15T10:14:46.875Z,19.40
2019-02-15T10:17:15.275Z,19.50
2019-02-15T10:19:43.656Z,19.60
2019-02-15T10:22:12.041Z,19.70
2019-02-15T10:24:40.423Z,19.60
2019-02-15T10:27:08.815Z,19.70
2019-02-15T10:29:37.196Z,19.90
2019-02-15T10:32:05.592Z,19.60
2019-02-15T10:34:33.972Z,19.50
2019-02-15T10:37:02.349Z,19.50
2019-02-15T10:39:30.743Z,19.70
2019-02-15T10:41:59.131Z,19.80
2019-02-15T10:44:27.523Z,19.80
2019-02-15T10:46:55.903Z,20.50
2019-02-15T10:49:24.292Z,20.80
2019-02-15T10:51:52.668Z,21.50
2019-02-15T10:54:21.102Z,21.80
2019-02-15T10:56:49.511Z,21.70
2019-02-15T10:59:17.895Z,21.70
2019-02-15T11:01:46.300Z,21.80
2019-02-15T11:04:14.676Z,21.90
2019-02-15T11:06:43.057Z,22.30
2019-02-15T11:09:12.414Z,22.40
2019-02-15T11:11:40.798Z,22.60
2019-02-15T11:14:09.184Z,22.50
2019-02-15T11:16:46.782Z,22.50
2019-02-15T11:19:07.676Z,23.00
2019-02-15T11:21:36.052Z,23.20
2019-02-15T11:24:04.432Z,22.70
2019-02-15T11:26:32.824Z,22.80
2019-02-15T11:29:01.196Z,23.00
2019-02-15T11:31:48.928Z,23.10
2019-02-15T11:34:17.308Z,23.40
2019-02-15T11:36:45.692Z,23.60
2019-02-15T11:39:14.067Z,23.80
2019-02-15T11:41:42.468Z,23.70
2019-02-15T11:44:10.842Z,24.10
2019-02-15T11:46:39.215Z,24.40
2019-02-15T11:49:07.603Z,24.40
2019-02-15T11:51:35.984Z,24.70
2019-02-15T11:54:04.385Z,25.00
2019-02-15T11:56:32.929Z,25.30
2019-02-15T11:59:01.309Z,25.50
2019-02-15T12:01:29.698Z,25.90
2019-02-15T12:03:58.076Z,26.30
2019-02-15T12:06:26.472Z,26.70
2019-02-15T12:08:54.847Z,27.10
2019-02-15T12:11:23.243Z,26.90
2019-02-15T12:13:51.623Z,26.90
2019-02-15T12:16:20.017Z,26.60
2019-02-15T12:18:48.392Z,26.90
2019-02-15T12:21:16.803Z,27.40
2019-02-15T12:23:45.420Z,27.20
2019-02-15T12:26:13.812Z,27.70
2019-02-15T12:28:42.187Z,27.80
2019-02-15T12:31:10.572Z,27.30
2019-02-15T12:33:38.948Z,27.10
2019-02-15T12:36:07.337Z,27.20
2019-02-15T12:38:35.711Z,27.50
2019-02-15T12:41:04.099Z,27.90
2019-02-15T12:43:32.881Z,27.50
2019-02-15T12:46:01.334Z,27.50
2019-02-15T12:48:29.772Z,27.80
2019-02-15T12:50:58.172Z,27.70
2019-02-15T12:53:26.548Z,28.50
2019-02-15T12:55:54.939Z,28.60
2019-02-15T12:58:23.350Z,28.50
2019-02-15T13:00:51.707Z,28.80
2019-02-15T13:03:20.106Z,28.60
2019-02-15T13:05:48.472Z,28.30
2019-02-15T13:08:16.859Z,28.50
2019-02-15T13:10:45.227Z,28.60
2019-02-15T13:13:13.608Z,27.70
2019-02-15T13:15:43.962Z,27.90
2019-02-15T13:18:12.101Z,28.20
2019-02-15T13:20:40.496Z,27.90
2019-02-15T13:23:08.873Z,27.60
2019-02-15T13:25:37.496Z,27.90
2019-02-15T13:28:05.876Z,27.60
2019-02-15T13:30:34.264Z,28.50
2019-02-15T13:33:02.646Z,27.90
2019-02-15T13:35:31.270Z,28.30
2019-02-15T13:37:59.653Z,27.70
2019-02-15T13:40:28.034Z,28.10
2019-02-15T13:42:56.416Z,28.30
2019-02-15T13:45:24.800Z,28.90
2019-02-15T13:47:53.187Z,29.20
2019-02-15T13:50:21.572Z,29.00
2019-02-15T13:52:50.033Z,28.50
2019-02-15T13:55:18.415Z,28.20
2019-02-15T13:57:46.804Z,28.20
2019-02-15T14:00:15.347Z,27.80
2019-02-15T14:02:43.736Z,27.30
2019-02-15T14:05:12.855Z,27.60
2019-02-15T14:07:41.324Z,26.70
2019-02-15T14:10:14.327Z,26.70
2019-02-15T14:12:42.760Z,26.50
2019-02-15T14:15:12.412Z,25.60
2019-02-15T14:17:45.246Z,25.80
2019-02-15T14:20:13.214Z,26.00
2019-02-15T14:22:41.580Z,26.40
2019-02-15T14:25:13.428Z,26.90
2019-02-15T14:27:41.823Z,27.00
2019-02-15T14:30:11.843Z,26.90
2019-02-15T14:32:40.402Z,27.20
2019-02-15T14:35:10.321Z,26.70
2019-02-15T14:37:38.712Z,26.50
2019-02-15T14:40:12.044Z,26.30
2019-02-15T14:42:40.437Z,26.20
2019-02-15T14:45:10.760Z,25.60
2019-02-15T14:47:39.154Z,24.80
2019-02-15T14:50:11.153Z,24.50
2019-02-15T14:52:39.595Z,24.30
2019-02-15T14:55:09.517Z,24.20
2019-02-15T14:57:37.896Z,23.80
2019-02-15T15:00:14.302Z,23.60
2019-02-15T15:02:42.680Z,23.50
2019-02-15T15:05:13.277Z,23.40
2019-02-15T15:07:41.735Z,23.20
2019-02-15T15:10:11.067Z,23.10
2019-02-15T15:12:39.446Z,23.20
2019-02-15T15:15:13.907Z,23.40
2019-02-15T15:17:42.283Z,23.50
2019-02-15T15:20:12.014Z,23.40
2019-02-15T15:22:40.388Z,23.20
2019-02-15T15:25:13.639Z,23.10
2019-02-15T15:27:42.030Z,23.10
2019-02-15T15:30:12.460Z,22.50
2019-02-15T15:32:40.858Z,22.40
2019-02-15T15:35:10.768Z,22.20
2019-02-15T15:37:39.155Z,21.70
2019-02-15T15:40:10.481Z,21.30
2019-02-15T15:42:38.928Z,21.30
2019-02-15T15:45:09.459Z,21.30
2019-02-15T15:47:37.836Z,21.20
2019-02-15T15:50:08.504Z,21.10
2019-02-15T15:52:36.907Z,20.90
2019-02-15T15:55:06.834Z,20.60
2019-02-15T15:57:35.212Z,20.50
2019-02-15T16:00:04.778Z,20.30
2019-02-15T16:02:33.159Z,20.40
2019-02-15T16:05:01.555Z,20.40
2019-02-15T16:07:29.935Z,20.20
2019-02-15T16:09:58.320Z,20.40
2019-02-15T16:12:26.728Z,20.50
2019-02-15T16:14:55.162Z,20.20
2019-02-15T16:17:25.203Z,20.10
2019-02-15T16:19:53.580Z,19.90
2019-02-15T16:22:21.961Z,19.80
2019-02-15T16:24:50.356Z,19.70
2019-02-15T16:27:18.723Z,19.60
2019-02-15T16:29:47.108Z,19.30
2019-02-15T16:32:15.720Z,18.90
2019-02-15T16:34:44.112Z,18.60
2019-02-15T16:37:12.488Z,18.10
2019-02-15T16:39:40.948Z,17.80
2019-02-15T16:42:09.338Z,17.50
2019-02-15T16:44:37.735Z,16.90
2019-02-15T16:47:06.119Z,16.40
2019-02-15T16:49:34.514Z,15.90
2019-02-15T16:52:02.949Z,15.30
2019-02-15T16:54:31.366Z,14.70
2019-02-15T16:56:59.735Z,14.20
2019-02-15T16:59:28.117Z,13.70
2019-02-15T17:01:56.496Z,13.30
2019-02-15T17:04:24.879Z,13.00
2019-02-15T17:06:53.268Z,12.80
2019-02-15T17:09:21.880Z,12.50
2019-02-15T17:11:50.269Z,12.20
2019-02-15T17:14:18.884Z,11.90
2019-02-15T17:16:47.272Z,11.80
2019-02-15T17:19:15.666Z,11.60
2019-02-15T17:21:44.051Z,11.50
2019-02-15T17:24:12.457Z,11.40
2019-02-15T17:26:40.895Z,11.30
2019-02-15T17:29:09.271Z,11.30
2019-02-15T17:31:37.664Z,11.30
2019-02-15T17:34:06.038Z,11.20
2019-02-15T17:36:34.424Z,11.10
2019-02-15T17:39:02.874Z,10.90
2019-02-15T17:41:31.251Z,10.80
2019-02-15T17:43:59.642Z,10.70
2019-02-15T17:46:28.020Z,10.60
2019-02-15T17:49:00.783Z,10.50
2019-02-15T17:51:26.542Z,10.50
2019-02-15T17:53:54.904Z,10.40
2019-02-15T17:56:23.292Z,10.40
2019-02-15T17:58:51.671Z,10.30
2019-02-15T18:01:20.069Z,10.20
2019-02-15T18:03:48.724Z,10.20
2019-02-15T18:06:17.096Z,10.20
2019-02-15T18:08:45.488Z,10.10
2019-02-15T18:11:14.144Z,10.20
2019-02-15T18:13:42.536Z,10.20
2019-02-15T18:16:10.914Z,10.10
2019-02-15T18:18:39.306Z,10.00
2019-02-15T18:21:07.680Z,10.10
2019-02-15T18:23:36.293Z,10.00
2019-02-15T18:26:04.680Z,10.00
2019-02-15T18:28:33.064Z,10.00
2019-02-15T18:31:01.447Z,9.90
2019-02-15T18:33:30.047Z,9.80
2019-02-15T18:35:58.432Z,9.80
2019-02-15T18:38:26.810Z,9.70
2019-02-15T18:40:55.192Z,9.60
2019-02-15T18:43:23.566Z,9.50
2019-02-15T18:45:51.948Z,9.40
2019-02-15T18:48:20.335Z,9.40
2019-02-15T18:50:48.711Z,9.30
2019-02-15T18:53:17.104Z,9.20
2019-02-15T18:55:45.494Z,9.00
2019-02-15T18:58:13.877Z,9.00
2019-02-15T19:00:42.495Z,9.00
2019-02-15T19:03:10.867Z,8.90
2019-02-15T19:05:39.246Z,8.80
2019-02-15T19:08:07.660Z,8.70
2019-02-15T19:10:36.019Z,8.70
2019-02-15T19:13:04.391Z,8.50
2019-02-15T19:15:32.795Z,8.50
2019-02-15T19:18:01.163Z,8.50
2019-02-15T19:20:29.547Z,8.50
2019-02-15T19:22:57.919Z,8.40
2019-02-15T19:25:26.296Z,8.40
2019-02-15T19:27:54.692Z,8.50
2019-02-15T19:30:29.082Z,8.50
2019-02-15T19:32:57.451Z,8.50
2019-02-15T19:35:25.844Z,8.40
2019-02-15T19:37:54.221Z,8.30
2019-02-15T19:40:22.587Z,8.30
2019-02-15T19:42:53.787Z,8.20
2019-02-15T19:45:22.171Z,8.10
2019-02-15T19:47:50.551Z,8.00
2019-02-15T19:50:18.959Z,8.00
2019-02-15T19:52:48.535Z,7.90
2019-02-15T19:55:16.936Z,7.80
2019-02-15T19:57:45.312Z,7.70
2019-02-15T20:00:16.683Z,7.80
2019-02-15T20:02:45.047Z,7.70
2019-02-15T20:05:13.492Z,7.50
2019-02-15T20:07:41.876Z,7.40
2019-02-15T20:10:18.294Z,7.20
2019-02-15T20:12:46.680Z,7.10
2019-02-15T20:15:15.134Z,7.00
2019-02-15T20:17:43.521Z,7.00
2019-02-15T20:20:13.541Z,7.00
2019-02-15T20:22:41.916Z,6.90
2019-02-15T20:25:11.944Z,6.90
2019-02-15T20:27:40.329Z,6.80
2019-02-15T20:30:19.903Z,6.70
2019-02-15T20:32:48.280Z,6.60
2019-02-15T20:35:16.651Z,6.50
2019-02-15T20:37:45.051Z,6.60
2019-02-15T20:40:13.980Z,6.60
2019-02-15T20:42:42.360Z,6.60
2019-02-15T20:45:19.000Z,6.60
2019-02-15T20:47:47.380Z,6.60
2019-02-15T20:50:16.008Z,6.60
2019-02-15T20:52:44.385Z,6.60
2019-02-15T20:55:19.663Z,6.50
2019-02-15T20:57:48.087Z,6.50
2019-02-15T21:00:24.775Z,6.50
2019-02-15T21:02:53.144Z,6.50
2019-02-15T21:05:21.523Z,6.40
2019-02-15T21:07:49.907Z,6.40
2019-02-15T21:10:18.284Z,6.30
2019-02-15T21:12:46.678Z,6.30
2019-02-15T21:15:15.494Z,6.20
2019-02-15T21:17:43.867Z,6.10
2019-02-15T21:20:13.494Z,6.00
2019-02-15T21:22:41.864Z,5.90
2019-02-15T21:25:12.201Z,5.80
2019-02-15T21:27:40.575Z,5.80
2019-02-15T21:30:14.743Z,5.80
2019-02-15T21:32:43.200Z,5.90
2019-02-15T21:35:11.598Z,5.90
2019-02-15T21:37:39.976Z,5.90
2019-02-15T21:40:11.202Z,5.80
2019-02-15T21:42:39.589Z,5.80
2019-02-15T21:45:10.008Z,5.80
2019-02-15T21:47:38.396Z,5.80
2019-02-15T21:50:16.740Z,5.70
2019-02-15T21:52:44.247Z,5.70
2019-02-15T21:55:11.063Z,5.70
2019-02-15T21:57:39.692Z,5.60
2019-02-15T22:00:16.801Z,5.60
2019-02-15T22:02:45.188Z,5.50
2019-02-15T22:05:13.571Z,5.40
2019-02-15T22:07:41.939Z,5.40
2019-02-15T22:10:10.398Z,5.40
2019-02-15T22:12:38.789Z,5.40
2019-02-15T22:15:12.428Z,5.50
2019-02-15T22:17:40.873Z,5.50
2019-02-15T22:20:12.176Z,5.40
2019-02-15T22:22:40.531Z,5.40
2019-02-15T22:25:09.052Z,5.40
2019-02-15T22:27:37.437Z,5.30
2019-02-15T22:30:09.120Z,5.30
2019-02-15T22:32:37.579Z,5.30
2019-02-15T22:35:07.299Z,5.30
2019-02-15T22:37:35.668Z,5.30
2019-02-15T22:40:35.451Z,5.30
2019-02-15T22:43:16.123Z,5.20
2019-02-15T22:45:44.511Z,5.10
2019-02-15T22:48:12.883Z,5.10
2019-02-15T22:50:41.259Z,5.10
2019-02-15T22:53:09.644Z,5.10
2019-02-15T22:55:38.029Z,5.10
2019-02-15T22:58:06.397Z,5.00
2019-02-15T23:00:39.736Z,4.90
2019-02-15T23:03:08.108Z,4.80
2019-02-15T23:05:36.496Z,4.80
2019-02-15T23:08:04.881Z,4.80
2019-02-15T23:10:33.252Z,4.70
2019-02-15T23:13:01.636Z,4.60
2019-02-15T23:15:30.037Z,4.60
2019-02-15T23:17:58.415Z,4.50
2019-02-15T23:20:26.816Z,4.50
2019-02-15T23:22:55.183Z,4.50
2019-02-15T23:25:25.041Z,4.50
2019-02-15T23:27:53.620Z,4.60
2019-02-15T23:30:22.003Z,4.60
2019-02-15T23:32:50.386Z,4.50
2019-02-15T23:35:18.773Z,4.40
2019-02-15T23:37:47.167Z,4.30
2019-02-15T23:40:15.520Z,4.30
2019-02-15T23:42:43.915Z,4.30
2019-02-15T23:45:12.292Z,4.40
2019-02-15T23:47:40.675Z,4.40
2019-02-15T23:50:09.820Z,4.40
2019-02-15T23:52:38.207Z,4.50
2019-02-15T23:55:06.584Z,4.40
2019-02-15T23:57:34.972Z,4.40
